createdAt,value
2017-09-28T00:00:02.511Z,0
2017-09-28T00:05:02.504Z,0
2017-09-28T00:10:03.140Z,0
2017-09-28T00:15:02.558Z,0
2017-09-28T00:20:03.097Z,0
2017-09-28T00:25:02.456Z,0
2017-09-28T00:30:02.857Z,0
2017-09-28T00:35:03.227Z,0
2017-09-28T00:40:02.760Z,0
2017-09-28T00:45:03.225Z,0
2017-09-28T00:50:02.679Z,0
2017-09-28T00:55:03.069Z,0
2017-09-28T01:00:02.618Z,0
2017-09-28T01:05:03.018Z,0
2017-09-28T01:10:02.512Z,0
2017-09-28T01:15:03.066Z,0
2017-09-28T01:20:02.599Z,0
2017-09-28T01:25:03.004Z,0
2017-09-28T01:30:02.515Z,0
2017-09-28T01:35:02.844Z,0
2017-09-28T01:40:03.396Z,0
2017-09-28T01:45:02.834Z,0
2017-09-28T01:50:03.373Z,0
2017-09-28T01:55:02.807Z,0
2017-09-28T02:00:03.323Z,0
2017-09-28T02:05:02.815Z,0
2017-09-28T02:10:03.270Z,0
2017-09-28T02:15:02.769Z,0
2017-09-28T02:20:03.096Z,0
2017-09-28T02:25:02.581Z,0
2017-09-28T02:30:03.134Z,0
2017-09-28T02:35:02.598Z,0
2017-09-28T02:40:03.186Z,0
2017-09-28T02:45:02.689Z,0
2017-09-28T02:50:03.112Z,0
2017-09-28T02:55:02.512Z,0
2017-09-28T03:00:03.001Z,0
2017-09-28T03:05:03.345Z,0
2017-09-28T03:10:02.780Z,0
2017-09-28T03:15:03.100Z,0
2017-09-28T03:20:02.547Z,0
2017-09-28T03:25:03.072Z,0
2017-09-28T03:30:03.436Z,0
2017-09-28T03:35:02.853Z,0
2017-09-28T03:40:03.411Z,0
2017-09-28T03:45:02.781Z,0
2017-09-28T03:50:03.104Z,0
2017-09-28T03:55:02.518Z,0
2017-09-28T04:00:02.978Z,0
2017-09-28T04:05:03.385Z,0
2017-09-28T04:10:02.746Z,0
2017-09-28T04:15:03.255Z,0
2017-09-28T04:20:02.702Z,0
2017-09-28T04:25:03.087Z,0
2017-09-28T04:30:02.799Z,0
2017-09-28T04:35:03.251Z,0
2017-09-28T04:40:02.616Z,0
2017-09-28T04:45:03.153Z,0
2017-09-28T04:50:02.571Z,0
2017-09-28T04:55:03.057Z,0
2017-09-28T05:00:02.470Z,0
2017-09-28T05:05:02.835Z,1
2017-09-28T05:10:03.222Z,3
2017-09-28T05:15:02.718Z,9
2017-09-28T05:20:03.240Z,26
2017-09-28T05:25:02.707Z,39
2017-09-28T05:30:03.259Z,56
2017-09-28T05:35:02.723Z,140
2017-09-28T05:40:03.139Z,262
2017-09-28T05:45:02.480Z,446
2017-09-28T05:50:02.958Z,558
2017-09-28T05:55:03.412Z,655
2017-09-28T06:00:02.797Z,693
2017-09-28T06:05:03.268Z,567
2017-09-28T06:10:02.775Z,480
2017-09-28T06:15:03.129Z,456
2017-09-28T06:20:02.539Z,481
2017-09-28T06:25:03.030Z,628
2017-09-28T06:30:03.401Z,699
2017-09-28T06:35:02.878Z,913
2017-09-28T06:40:03.266Z,963
2017-09-28T06:45:02.730Z,1000
2017-09-28T06:50:03.279Z,938
2017-09-28T06:55:02.791Z,813
2017-09-28T07:00:03.163Z,788
2017-09-28T07:05:02.633Z,738
2017-09-28T07:10:03.092Z,690
2017-09-28T07:15:02.506Z,665
2017-09-28T07:20:02.947Z,935
2017-09-28T07:25:02.462Z,1000
2017-09-28T07:30:02.980Z,1000
2017-09-28T07:35:02.478Z,1000
2017-09-28T07:40:02.992Z,1000
2017-09-28T07:45:03.413Z,1000
2017-09-28T07:50:02.899Z,1000
2017-09-28T07:55:03.452Z,1000
2017-09-28T08:00:02.782Z,2000
2017-09-28T08:05:03.178Z,2000
2017-09-28T08:10:02.685Z,2000
2017-09-28T08:15:03.152Z,3000
2017-09-28T08:20:02.548Z,2000
2017-09-28T08:25:03.067Z,2000
2017-09-28T08:30:02.512Z,2000
2017-09-28T08:35:03.000Z,2000
2017-09-28T08:40:02.439Z,1000
2017-09-28T08:45:02.846Z,3000
2017-09-28T08:50:03.428Z,3000
2017-09-28T08:55:02.898Z,3000
2017-09-28T09:00:03.314Z,3000
2017-09-28T09:05:02.728Z,3000
2017-09-28T09:10:03.277Z,3000
2017-09-28T09:15:02.704Z,3000
2017-09-28T09:20:03.256Z,3000
2017-09-28T09:25:02.675Z,2000
2017-09-28T09:30:03.153Z,2000
2017-09-28T09:35:02.596Z,3000
2017-09-28T09:40:03.088Z,3000
2017-09-28T09:45:02.483Z,2000
2017-09-28T09:50:03.072Z,2000
2017-09-28T09:55:02.578Z,2000
2017-09-28T10:00:03.120Z,3000
2017-09-28T10:05:02.511Z,4000
2017-09-28T10:10:02.980Z,5000
2017-09-28T10:15:03.103Z,5000
2017-09-28T10:20:02.881Z,5000
2017-09-28T10:25:03.434Z,5000
2017-09-28T10:30:02.932Z,5000
2017-09-28T10:35:03.407Z,5000
2017-09-28T10:40:02.861Z,8000
2017-09-28T10:45:03.308Z,9000
2017-09-28T10:50:02.748Z,6000
2017-09-28T10:55:03.166Z,4000
2017-09-28T11:00:02.690Z,6000
2017-09-28T11:05:03.211Z,6000
2017-09-28T11:10:02.781Z,6000
2017-09-28T11:15:03.254Z,9000
2017-09-28T11:20:02.683Z,13000
2017-09-28T11:25:03.148Z,33000
2017-09-28T11:30:02.545Z,23000
2017-09-28T11:35:03.049Z,27000
2017-09-28T11:40:02.636Z,27000
2017-09-28T11:45:03.148Z,19000
2017-09-28T11:50:02.779Z,11000
2017-09-28T11:55:03.214Z,7000
2017-09-28T12:00:02.603Z,4000
2017-09-28T12:05:03.145Z,5000
2017-09-28T12:10:02.604Z,8000
2017-09-28T12:15:02.950Z,9000
2017-09-28T12:20:03.366Z,15000
2017-09-28T12:25:02.927Z,9000
2017-09-28T12:30:02.468Z,9000
2017-09-28T12:35:02.916Z,5000
2017-09-28T12:40:03.454Z,5000
2017-09-28T12:45:03.010Z,5000
2017-09-28T12:50:02.515Z,5000
2017-09-28T12:55:03.054Z,5000
2017-09-28T13:00:02.518Z,7000
2017-09-28T13:05:02.988Z,6000
2017-09-28T13:10:02.597Z,5000
2017-09-28T13:15:03.148Z,7000
2017-09-28T13:20:02.695Z,7000
2017-09-28T13:25:03.192Z,7000
2017-09-28T13:30:02.542Z,8000
2017-09-28T13:35:03.009Z,8000
2017-09-28T13:40:02.557Z,7000
2017-09-28T13:45:02.938Z,5000
2017-09-28T13:50:03.361Z,4000
2017-09-28T13:55:02.657Z,5000
2017-09-28T14:00:03.003Z,6000
2017-09-28T14:05:03.319Z,17000
2017-09-28T14:10:02.751Z,10000
2017-09-28T14:15:03.169Z,8000
2017-09-28T14:20:02.509Z,9000
2017-09-28T14:25:02.935Z,9000
2017-09-28T14:30:03.386Z,9000
2017-09-28T14:35:02.943Z,7000
2017-09-28T14:40:02.505Z,7000
2017-09-28T14:45:02.990Z,6000
2017-09-28T14:50:02.471Z,5000
2017-09-28T14:55:03.015Z,5000
2017-09-28T15:00:03.334Z,5000
2017-09-28T15:05:02.889Z,5000
2017-09-28T15:10:03.442Z,6000
2017-09-28T15:15:02.949Z,5000
2017-09-28T15:20:03.346Z,6000
2017-09-28T15:25:02.854Z,7000
2017-09-28T15:30:03.310Z,3000
2017-09-28T15:35:02.817Z,3000
2017-09-28T15:40:03.313Z,2000
2017-09-28T15:45:02.700Z,2000
2017-09-28T15:50:03.129Z,1000
2017-09-28T15:55:02.580Z,2000
2017-09-28T16:00:02.945Z,2000
2017-09-28T16:05:02.550Z,2000
2017-09-28T16:10:03.089Z,3000
2017-09-28T16:15:02.582Z,2000
2017-09-28T16:20:03.181Z,1000
2017-09-28T16:25:02.507Z,1000
2017-09-28T16:30:02.967Z,954
2017-09-28T16:35:02.465Z,1000
2017-09-28T16:40:03.049Z,1000
2017-09-28T16:45:02.718Z,768
2017-09-28T16:50:03.196Z,634
2017-09-28T16:55:02.672Z,495
2017-09-28T17:00:03.058Z,364
2017-09-28T17:05:02.438Z,233
2017-09-28T17:10:02.990Z,161
2017-09-28T17:15:02.433Z,81
2017-09-28T17:20:02.969Z,64
2017-09-28T17:25:02.450Z,40
2017-09-28T17:30:02.854Z,24
2017-09-28T17:35:03.400Z,14
2017-09-28T17:40:02.858Z,7
2017-09-28T17:45:03.236Z,2
2017-09-28T17:50:02.762Z,0
2017-09-28T17:55:03.332Z,0
2017-09-28T18:00:02.870Z,0
2017-09-28T18:05:02.496Z,0
2017-09-28T18:10:02.934Z,0
2017-09-28T18:15:02.500Z,0
2017-09-28T18:20:02.856Z,0
2017-09-28T18:25:03.359Z,0
2017-09-28T18:30:02.674Z,0
2017-09-28T18:35:03.132Z,0
2017-09-28T18:40:02.468Z,0
2017-09-28T18:45:03.023Z,0
2017-09-28T18:50:02.572Z,0
2017-09-28T18:55:02.992Z,0
2017-09-28T19:00:02.462Z,0
2017-09-28T19:05:02.887Z,0
2017-09-28T19:10:03.411Z,0
2017-09-28T19:15:02.764Z,0
2017-09-28T19:20:03.293Z,0
2017-09-28T19:25:02.789Z,0
2017-09-28T19:30:03.176Z,0
2017-09-28T19:35:02.759Z,0
2017-09-28T19:40:03.239Z,0
2017-09-28T19:45:02.634Z,0
2017-09-28T19:50:03.053Z,0
2017-09-28T19:55:02.553Z,0
2017-09-28T20:00:03.038Z,0
2017-09-28T20:05:02.589Z,0
2017-09-28T20:10:03.040Z,0
2017-09-28T20:15:02.488Z,0
2017-09-28T20:20:02.899Z,0
2017-09-28T20:25:03.241Z,0
2017-09-28T20:30:02.771Z,0
2017-09-28T20:35:03.195Z,0
2017-09-28T20:40:02.759Z,0
2017-09-28T20:45:03.420Z,0
2017-09-28T20:50:02.894Z,0
2017-09-28T20:55:03.259Z,0
2017-09-28T21:00:02.796Z,0
2017-09-28T21:05:03.378Z,0
2017-09-28T21:10:02.818Z,0
2017-09-28T21:15:03.375Z,0
2017-09-28T21:20:02.760Z,0
2017-09-28T21:25:03.273Z,0
2017-09-28T21:30:02.808Z,0
2017-09-28T21:35:03.350Z,0
2017-09-28T21:40:02.843Z,0
2017-09-28T21:45:03.396Z,0
2017-09-28T21:50:02.926Z,0
2017-09-28T21:55:03.348Z,0
2017-09-28T22:00:02.764Z,0
2017-09-28T22:05:03.185Z,0
2017-09-28T22:10:02.634Z,0
2017-09-28T22:20:02.808Z,0
2017-09-28T22:25:03.245Z,0
2017-09-28T22:30:02.597Z,0
2017-09-28T22:35:02.948Z,0
2017-09-28T22:40:02.717Z,0
2017-09-28T22:45:03.224Z,0
2017-09-28T22:50:02.868Z,0
2017-09-28T22:55:02.464Z,0
2017-09-28T23:00:03.422Z,0
2017-09-28T23:05:02.801Z,0
2017-09-28T23:10:03.294Z,0
2017-09-28T23:15:02.641Z,0
2017-09-28T23:20:03.042Z,0
2017-09-28T23:25:02.519Z,0
2017-09-28T23:30:02.881Z,0
2017-09-28T23:35:03.323Z,0
2017-09-28T23:40:02.894Z,0
2017-09-28T23:45:03.390Z,0
2017-09-28T23:50:02.872Z,0
2017-09-28T23:55:03.308Z,0
